Portada
METAR-TAF:

METAR-TAF

Aeroports :

Pella Municipal Airport

Pella, Iowa, Estats Units d'Amèrica

latitud: 41-24N, longitud: 092-56W, altitud: 270 m

Observació

L'informe es va fer fa 8 minuts, a les 18:55 UTC
Vent 7 kt del Sud-Est
Temperatura 26°C
Humitat 74%
Pressió 1009 hPa
Visibilitat: 16.1 km
Núvols disperses a una alçada de 2300 ft
Cel ennuvolat a una alçada de 2800 ft
Cel ennuvolat a una alçada de 3800 ft

METAR: KPEA 191855Z AUTO 13007KT 10SM SCT023 BKN028 BKN038 26/21 A2979 RMK AO2 T02610207

Hora: 14:03 (19:03 UTC)


TAF: manca

Observacions i pronòstics meteorològics de més de 4000 aeroports (METAR i TAF).

Les estacions disponibles són els punts grocs i vermells al mapa.

Posi el ratolí al punt desitjat per veure el nom de l'estació.

Feu clic per veure les observacions i els pronòstics meteorològics.

Per canviar el mapa: feu clic els botons verds amb una creu de color negre per apropar; al botó verd amb un guió per allunyar la imatge; o en les fletxes verdes per a mapes adjacents.


METAR-TAF: